createdAt,value
2023-05-20T00:01:09.797Z,9.40
2023-05-20T00:04:58.956Z,11.70
2023-05-20T00:08:14.670Z,10.50
2023-05-20T00:11:35.158Z,10.20
2023-05-20T00:14:34.570Z,10.20
2023-05-20T00:17:46.561Z,10.70
2023-05-20T00:20:55.426Z,10.20
2023-05-20T00:24:29.863Z,10.50
2023-05-20T00:27:47.570Z,10.70
2023-05-20T00:31:10.926Z,10.60
2023-05-20T00:34:36.194Z,11.30
2023-05-20T00:37:55.389Z,11.40
2023-05-20T00:41:04.860Z,14.50
2023-05-20T00:44:43.905Z,11.80
2023-05-20T00:48:32.245Z,12.10
2023-05-20T00:52:12.180Z,10.90
2023-05-20T00:56:01.427Z,11.50
2023-05-20T00:59:32.445Z,10.90
2023-05-20T01:03:14.152Z,11.70
2023-05-20T01:06:34.326Z,11.40
2023-05-20T01:09:38.639Z,11.80
2023-05-20T01:13:11.472Z,12.10
2023-05-20T01:16:42.819Z,10.60
2023-05-20T01:20:43.751Z,10.10
2023-05-20T01:23:51.373Z,11.30
2023-05-20T01:27:11.600Z,10.60
2023-05-20T01:30:44.528Z,10.60
2023-05-20T01:34:26.233Z,10.20
2023-05-20T01:37:58.100Z,10.30
2023-05-20T01:41:00.162Z,10.50
2023-05-20T01:44:29.081Z,10.80
2023-05-20T01:48:07.889Z,10.30
2023-05-20T01:51:39.735Z,10.60
2023-05-20T01:54:50.977Z,10.00
2023-05-20T02:01:32.629Z,8.90
2023-05-20T02:06:02.046Z,10.20
2023-05-20T02:10:30.909Z,10.80
2023-05-20T02:14:59.810Z,10.50
2023-05-20T02:19:30.992Z,11.40
2023-05-20T02:24:00.155Z,10.60
2023-05-20T02:28:29.283Z,10.70
2023-05-20T02:32:58.464Z,10.40
2023-05-20T02:37:27.274Z,9.90
2023-05-20T02:41:56.426Z,11.00
2023-05-20T02:46:25.792Z,10.00
2023-05-20T02:50:55.254Z,11.00
2023-05-20T02:55:25.527Z,10.30
2023-05-20T02:59:55.190Z,10.00
2023-05-20T03:04:24.411Z,10.40
2023-05-20T03:08:53.548Z,9.50
2023-05-20T03:13:23.120Z,9.90
2023-05-20T03:17:52.696Z,9.90
2023-05-20T03:22:21.563Z,9.50
2023-05-20T03:26:50.759Z,9.80
2023-05-20T03:31:20.160Z,9.70
2023-05-20T03:35:49.665Z,9.40
2023-05-20T03:40:18.901Z,9.10
2023-05-20T03:44:48.379Z,9.60
2023-05-20T03:49:17.256Z,9.00
2023-05-20T03:53:46.381Z,9.20
2023-05-20T04:05:05.330Z,7.30
2023-05-20T04:08:47.333Z,8.50
2023-05-20T04:12:21.894Z,8.80
2023-05-20T04:16:11.229Z,9.00
2023-05-20T04:20:00.661Z,8.80
2023-05-20T04:23:49.890Z,9.40
2023-05-20T04:27:39.050Z,8.30
2023-05-20T04:31:28.266Z,9.00
2023-05-20T04:35:17.276Z,8.80
2023-05-20T04:38:59.404Z,8.20
2023-05-20T04:42:36.744Z,8.20
2023-05-20T04:46:25.299Z,8.70
2023-05-20T04:50:14.582Z,8.10
2023-05-20T04:54:03.849Z,8.80
2023-05-20T04:57:45.964Z,8.50
2023-05-20T05:01:26.169Z,8.40
2023-05-20T05:05:05.782Z,9.50
2023-05-20T05:08:55.095Z,9.40
2023-05-20T05:12:44.455Z,9.30
2023-05-20T05:16:39.014Z,8.70
2023-05-20T05:20:28.152Z,9.60
2023-05-20T05:24:16.369Z,9.70
2023-05-20T05:28:05.410Z,9.20
2023-05-20T05:31:57.565Z,9.60
2023-05-20T05:35:47.019Z,8.80
2023-05-20T05:39:36.183Z,8.90
2023-05-20T05:43:18.447Z,9.40
2023-05-20T05:47:07.193Z,9.20
2023-05-20T05:50:56.712Z,9.20
2023-05-20T05:54:46.198Z,9.60
2023-05-20T05:58:35.243Z,10.00
2023-05-20T06:02:16.169Z,8.80
2023-05-20T06:10:18.920Z,9.90
2023-05-20T06:14:08.201Z,9.40
2023-05-20T06:17:57.009Z,9.30
2023-05-20T06:21:43.381Z,9.20
2023-05-20T06:25:32.449Z,10.70
2023-05-20T06:28:53.295Z,11.40
2023-05-20T06:32:37.209Z,11.10
2023-05-20T06:36:16.185Z,9.90
2023-05-20T06:40:05.277Z,9.50
2023-05-20T06:43:52.619Z,9.30
2023-05-20T06:47:50.063Z,8.80
2023-05-20T06:51:39.244Z,9.70
2023-05-20T06:55:13.623Z,13.90
2023-05-20T06:58:58.104Z,9.90
2023-05-20T07:02:47.210Z,9.20
2023-05-20T07:06:36.715Z,9.70
2023-05-20T07:10:17.669Z,10.60
2023-05-20T07:14:06.881Z,11.50
2023-05-20T07:17:45.414Z,11.20
2023-05-20T07:21:35.166Z,11.50
2023-05-20T07:24:52.640Z,11.90
2023-05-20T07:28:34.821Z,10.20
2023-05-20T07:32:10.093Z,12.00
2023-05-20T07:35:32.273Z,12.50
2023-05-20T07:39:06.750Z,10.40
2023-05-20T07:42:38.127Z,10.20
2023-05-20T07:45:53.579Z,10.80
2023-05-20T07:49:34.977Z,10.90
2023-05-20T07:53:24.265Z,10.90
2023-05-20T07:57:08.679Z,11.00
2023-05-20T08:00:58.452Z,13.10
2023-05-20T08:04:01.391Z,12.30
2023-05-20T08:07:45.640Z,11.80
2023-05-20T08:11:13.286Z,13.50
2023-05-20T08:14:37.973Z,14.20
2023-05-20T08:17:32.003Z,12.60
2023-05-20T08:20:35.750Z,12.60
2023-05-20T08:24:09.941Z,14.00
2023-05-20T08:27:58.807Z,13.30
2023-05-20T08:31:46.813Z,14.50
2023-05-20T08:35:31.929Z,12.90
2023-05-20T08:39:05.982Z,14.40
2023-05-20T08:42:55.286Z,14.00
2023-05-20T08:46:45.067Z,13.60
2023-05-20T08:50:24.145Z,13.70
2023-05-20T08:54:13.828Z,13.40
2023-05-20T08:58:05.084Z,13.90
2023-05-20T09:01:51.974Z,14.90
2023-05-20T09:05:33.145Z,14.90
2023-05-20T09:09:22.403Z,15.30
2023-05-20T09:13:11.811Z,14.80
2023-05-20T09:17:01.678Z,14.80
2023-05-20T09:20:53.735Z,15.40
2023-05-20T09:24:26.763Z,21.30
2023-05-20T09:28:16.753Z,17.30
2023-05-20T09:31:58.557Z,16.70
2023-05-20T09:35:47.681Z,16.60
2023-05-20T09:39:36.919Z,15.60
2023-05-20T09:43:25.057Z,16.30
2023-05-20T09:47:12.669Z,17.00
2023-05-20T09:50:56.324Z,16.70
2023-05-20T09:54:45.599Z,15.90
2023-05-20T09:58:37.562Z,14.70
2023-05-20T10:02:26.747Z,15.80
2023-05-20T10:05:55.593Z,17.60
2023-05-20T10:09:46.313Z,16.90
2023-05-20T10:13:17.583Z,16.40
2023-05-20T10:17:12.344Z,18.00
2023-05-20T10:21:02.039Z,18.50
2023-05-20T10:25:10.952Z,18.20
2023-05-20T10:29:05.496Z,17.70
2023-05-20T10:32:54.632Z,16.20
2023-05-20T10:36:29.148Z,19.60
2023-05-20T10:40:18.731Z,20.40
2023-05-20T10:43:49.156Z,19.10
2023-05-20T10:47:26.329Z,19.40
2023-05-20T10:51:18.325Z,20.30
2023-05-20T10:54:56.975Z,22.50
2023-05-20T10:58:46.845Z,20.30
2023-05-20T11:02:36.039Z,18.90
2023-05-20T11:06:20.864Z,17.50
2023-05-20T11:10:09.908Z,17.60
2023-05-20T11:13:55.145Z,15.70
2023-05-20T11:17:46.304Z,16.40
2023-05-20T11:21:23.003Z,15.30
2023-05-20T11:24:55.930Z,15.10
2023-05-20T11:28:44.932Z,14.40
2023-05-20T11:32:28.090Z,13.90
2023-05-20T11:36:29.731Z,14.60
2023-05-20T11:40:18.820Z,16.50
2023-05-20T11:44:08.263Z,15.30
2023-05-20T11:48:01.647Z,12.90
2023-05-20T11:51:35.343Z,12.60
2023-05-20T11:55:24.042Z,15.30
2023-05-20T11:59:00.677Z,14.90
2023-05-20T12:02:46.588Z,15.40
2023-05-20T12:06:36.997Z,16.50
2023-05-20T12:10:26.186Z,16.20
2023-05-20T12:13:59.326Z,12.40
2023-05-20T12:18:14.750Z,15.00
2023-05-20T12:21:35.597Z,15.60
2023-05-20T12:25:06.953Z,16.00
2023-05-20T12:28:55.289Z,15.40
2023-05-20T12:32:44.776Z,14.60
2023-05-20T12:36:19.251Z,15.50
2023-05-20T12:39:52.137Z,16.70
2023-05-20T12:43:41.624Z,19.80
2023-05-20T12:47:13.422Z,18.50
2023-05-20T12:50:52.368Z,20.90
2023-05-20T12:54:30.987Z,17.30
2023-05-20T12:58:14.582Z,18.30
2023-05-20T13:02:03.715Z,17.10
2023-05-20T13:05:52.996Z,16.30
2023-05-20T13:09:08.706Z,18.30
2023-05-20T13:12:58.776Z,17.50
2023-05-20T13:16:28.424Z,18.30
2023-05-20T13:20:01.089Z,18.50
2023-05-20T13:23:50.770Z,17.50
2023-05-20T13:27:40.093Z,18.60
2023-05-20T13:31:19.399Z,19.50
2023-05-20T13:34:59.015Z,22.40
2023-05-20T13:38:48.824Z,30.90
2023-05-20T13:41:39.728Z,19.90
2023-05-20T13:45:20.948Z,21.60
2023-05-20T13:48:52.603Z,22.00
2023-05-20T13:51:46.581Z,21.50
2023-05-20T13:54:49.245Z,16.90
2023-05-20T13:57:56.076Z,20.20
2023-05-20T14:01:35.020Z,19.50
2023-05-20T14:05:15.880Z,17.60
2023-05-20T14:08:37.252Z,16.80
2023-05-20T14:12:16.418Z,17.50
2023-05-20T14:22:05.056Z,13.70
2023-05-20T14:25:38.011Z,21.10
2023-05-20T14:29:27.337Z,15.90
2023-05-20T14:33:17.754Z,16.20
2023-05-20T14:37:08.716Z,15.60
2023-05-20T14:41:34.266Z,15.70
2023-05-20T14:45:46.352Z,17.30
2023-05-20T14:49:28.764Z,18.30
2023-05-20T14:52:58.803Z,16.40
2023-05-20T14:56:09.744Z,15.50
2023-05-20T14:59:36.805Z,17.60
2023-05-20T15:03:00.604Z,20.10
2023-05-20T15:06:32.068Z,15.10
2023-05-20T15:09:59.240Z,14.90
2023-05-20T15:14:08.789Z,16.70
2023-05-20T15:17:27.802Z,14.70
2023-05-20T15:21:10.432Z,16.20
2023-05-20T15:24:33.311Z,16.70
2023-05-20T15:28:23.315Z,16.00
2023-05-20T15:31:27.267Z,16.70
2023-05-20T15:35:16.735Z,17.60
2023-05-20T15:39:06.202Z,19.10
2023-05-20T15:42:50.411Z,18.30
2023-05-20T15:46:45.054Z,17.90
2023-05-20T15:50:38.674Z,19.40
2023-05-20T15:53:48.752Z,17.30
2023-05-20T15:57:38.494Z,18.80
2023-05-20T16:01:08.454Z,17.40
2023-05-20T16:04:48.450Z,16.70
2023-05-20T16:08:12.960Z,17.80
2023-05-20T16:12:01.904Z,15.00
2023-05-20T16:15:17.485Z,25.20
2023-05-20T16:18:56.947Z,18.40
2023-05-20T16:22:39.104Z,17.30
2023-05-20T16:26:22.170Z,16.30
2023-05-20T16:29:41.649Z,17.00
2023-05-20T16:32:54.809Z,16.40
2023-05-20T16:36:45.384Z,16.90
2023-05-20T16:40:35.965Z,17.00
2023-05-20T16:44:09.698Z,18.70
2023-05-20T16:47:58.961Z,17.50
2023-05-20T16:51:47.827Z,17.00
2023-05-20T16:55:19.787Z,16.30
2023-05-20T16:59:09.071Z,17.20
2023-05-20T17:02:58.381Z,16.90
2023-05-20T17:06:48.442Z,16.10
2023-05-20T17:10:39.125Z,19.20
2023-05-20T17:14:24.225Z,16.50
2023-05-20T17:18:20.996Z,16.80
2023-05-20T17:22:10.896Z,17.20
2023-05-20T17:26:00.661Z,18.60
2023-05-20T17:29:38.770Z,19.00
2023-05-20T17:32:57.022Z,19.30
2023-05-20T17:36:33.733Z,20.10
2023-05-20T17:40:13.766Z,19.50
2023-05-20T17:43:29.427Z,20.90
2023-05-20T17:46:48.589Z,20.30
2023-05-20T17:50:00.211Z,20.30
2023-05-20T17:53:26.115Z,19.90
2023-05-20T17:57:15.431Z,20.50
2023-05-20T18:00:31.763Z,20.50
2023-05-20T18:04:21.543Z,22.10
2023-05-20T18:07:51.073Z,22.00
2023-05-20T18:11:40.593Z,25.20
2023-05-20T18:15:31.045Z,31.60
2023-05-20T18:19:21.617Z,26.60
2023-05-20T18:23:01.921Z,26.10
2023-05-20T18:26:34.703Z,24.60
2023-05-20T18:30:03.447Z,22.90
2023-05-20T18:33:46.537Z,22.80
2023-05-20T18:36:46.210Z,27.40
2023-05-20T18:40:15.567Z,24.60
2023-05-20T18:44:02.815Z,22.80
2023-05-20T18:47:40.849Z,21.40
2023-05-20T18:51:21.644Z,24.50
2023-05-20T18:54:31.451Z,24.60
2023-05-20T18:57:22.654Z,25.90
2023-05-20T19:00:46.045Z,28.20
2023-05-20T19:04:35.635Z,26.80
2023-05-20T19:08:25.967Z,31.00
2023-05-20T19:12:11.651Z,33.10
2023-05-20T19:16:18.633Z,36.90
2023-05-20T19:20:02.573Z,33.50
2023-05-20T19:23:51.798Z,31.40
2023-05-20T19:27:56.613Z,30.80
2023-05-20T19:31:30.343Z,33.50
2023-05-20T19:34:50.714Z,36.50
2023-05-20T19:38:40.509Z,33.50
2023-05-20T19:42:51.806Z,34.40
2023-05-20T19:46:31.414Z,32.00
2023-05-20T19:50:20.959Z,30.20
2023-05-20T19:54:10.648Z,28.50
2023-05-20T19:57:57.359Z,27.50
2023-05-20T20:01:48.837Z,28.30
2023-05-20T20:05:46.318Z,29.00
2023-05-20T20:09:56.548Z,28.50
2023-05-20T20:13:45.474Z,30.20
2023-05-20T20:17:55.444Z,28.00
2023-05-20T20:21:46.478Z,28.50
2023-05-20T20:25:20.783Z,30.60
2023-05-20T20:28:58.759Z,27.30
2023-05-20T20:32:48.968Z,30.50
2023-05-20T20:36:38.470Z,30.10
2023-05-20T20:40:31.556Z,30.20
2023-05-20T20:44:20.272Z,35.50
2023-05-20T20:48:00.928Z,29.00
2023-05-20T20:51:50.502Z,31.00
2023-05-20T20:55:39.987Z,29.60
2023-05-20T20:59:31.337Z,28.90
2023-05-20T21:03:03.818Z,31.00
2023-05-20T21:06:55.273Z,29.40
2023-05-20T21:10:44.729Z,29.80
2023-05-20T21:14:12.824Z,29.90
2023-05-20T21:18:02.146Z,29.70
2023-05-20T21:21:51.969Z,31.50
2023-05-20T21:25:41.615Z,29.10
2023-05-20T21:29:23.301Z,30.70
2023-05-20T21:33:13.471Z,31.30
2023-05-20T21:37:03.124Z,30.40
2023-05-20T21:40:45.753Z,31.40
2023-05-20T21:44:35.326Z,29.10
2023-05-20T21:48:11.298Z,30.20
2023-05-20T21:52:00.724Z,30.20
2023-05-20T21:55:34.344Z,27.60
2023-05-20T21:59:17.097Z,28.30
2023-05-20T22:02:30.004Z,27.90
2023-05-20T22:06:05.123Z,27.30
2023-05-20T22:09:45.382Z,27.60
2023-05-20T22:13:04.504Z,26.20
2023-05-20T22:16:56.235Z,27.50
2023-05-20T22:20:46.397Z,26.00
2023-05-20T22:24:35.475Z,27.30
2023-05-20T22:28:15.100Z,27.80
2023-05-20T22:31:43.607Z,27.10
2023-05-20T22:35:00.416Z,27.20
2023-05-20T22:38:36.049Z,26.70
2023-05-20T22:42:04.830Z,27.40
2023-05-20T22:45:39.248Z,27.70
2023-05-20T22:49:14.634Z,27.00
2023-05-20T22:52:56.362Z,30.00
2023-05-20T22:56:37.073Z,29.80
2023-05-20T23:00:22.524Z,29.90
2023-05-20T23:04:10.752Z,30.20
2023-05-20T23:08:00.270Z,28.60
2023-05-20T23:11:40.382Z,27.90
2023-05-20T23:15:29.729Z,28.10
2023-05-20T23:19:19.900Z,26.20
2023-05-20T23:23:11.572Z,27.20
2023-05-20T23:27:01.922Z,26.80
2023-05-20T23:30:35.709Z,27.30
2023-05-20T23:34:25.208Z,28.70
2023-05-20T23:38:15.259Z,26.40
2023-05-20T23:41:56.000Z,27.80
2023-05-20T23:45:45.705Z,28.40
2023-05-20T23:49:35.453Z,25.30
2023-05-20T23:53:24.750Z,27.50
2023-05-20T23:57:12.951Z,25.80
